createdAt,value
2022-08-26T00:04:40.865Z,21.15
2022-08-26T00:09:47.294Z,21.10
2022-08-26T00:14:50.868Z,21.04
2022-08-26T00:19:54.484Z,21.02
2022-08-26T00:24:58.614Z,21.01
2022-08-26T00:30:06.921Z,20.99
2022-08-26T00:35:12.099Z,20.96
2022-08-26T00:40:20.373Z,20.92
2022-08-26T00:45:24.183Z,20.85
2022-08-26T00:50:31.250Z,20.81
2022-08-26T00:55:41.520Z,20.76
2022-08-26T01:00:45.205Z,20.71
2022-08-26T01:05:48.961Z,20.65
2022-08-26T01:10:55.744Z,20.64
2022-08-26T01:16:03.077Z,20.59
2022-08-26T01:21:22.487Z,20.52
2022-08-26T01:26:31.084Z,20.51
2022-08-26T01:31:42.127Z,20.48
2022-08-26T01:36:50.718Z,20.47
2022-08-26T01:41:57.269Z,20.44
2022-08-26T01:47:07.379Z,20.44
2022-08-26T01:52:18.867Z,20.37
2022-08-26T01:57:27.406Z,20.31
2022-08-26T02:02:30.815Z,20.24
2022-08-26T02:07:34.742Z,20.18
2022-08-26T02:12:39.178Z,20.12
2022-08-26T02:17:47.633Z,20.06
2022-08-26T02:22:51.021Z,19.98
2022-08-26T02:27:56.995Z,19.91
2022-08-26T02:33:04.115Z,19.86
2022-08-26T02:38:10.262Z,19.84
2022-08-26T02:43:14.813Z,19.81
2022-08-26T02:48:21.490Z,19.81
2022-08-26T02:53:25.548Z,19.80
2022-08-26T02:58:29.048Z,19.76
2022-08-26T03:03:33.391Z,19.75
2022-08-26T03:08:36.795Z,19.70
2022-08-26T03:13:41.232Z,19.67
2022-08-26T03:18:51.997Z,19.67
2022-08-26T03:23:55.534Z,19.68
2022-08-26T03:29:20.661Z,19.65
2022-08-26T03:34:24.277Z,19.67
2022-08-26T03:39:31.543Z,19.68
2022-08-26T03:44:36.427Z,19.68
2022-08-26T03:49:43.629Z,19.67
2022-08-26T03:54:48.680Z,19.60
2022-08-26T03:59:52.912Z,19.57
2022-08-26T04:04:57.145Z,19.59
2022-08-26T04:10:00.559Z,19.60
2022-08-26T04:15:13.514Z,19.67
2022-08-26T04:20:18.517Z,19.74
2022-08-26T04:25:22.883Z,19.79
2022-08-26T04:30:28.035Z,19.84
2022-08-26T04:35:32.372Z,19.94
2022-08-26T04:40:35.885Z,20.04
2022-08-26T04:45:41.405Z,20.10
2022-08-26T04:50:44.771Z,20.19
2022-08-26T04:55:55.121Z,20.32
2022-08-26T05:00:58.761Z,20.44
2022-08-26T05:06:05.536Z,20.56
2022-08-26T05:11:09.365Z,20.72
2022-08-26T05:16:15.161Z,20.87
2022-08-26T05:21:24.390Z,21.05
2022-08-26T05:26:30.283Z,21.28
2022-08-26T05:31:34.885Z,21.60
2022-08-26T05:36:39.252Z,21.87
2022-08-26T05:41:44.767Z,22.15
2022-08-26T05:46:48.325Z,22.50
2022-08-26T05:51:54.601Z,22.91
2022-08-26T05:56:57.805Z,23.31
2022-08-26T06:02:02.794Z,23.70
2022-08-26T06:07:13.501Z,24.10
2022-08-26T06:12:23.220Z,24.45
2022-08-26T06:17:26.620Z,24.76
2022-08-26T06:22:48.872Z,25.02
2022-08-26T06:27:52.180Z,25.08
2022-08-26T06:32:55.696Z,24.97
2022-08-26T06:37:59.212Z,24.90
2022-08-26T06:43:02.522Z,24.90
2022-08-26T06:48:07.626Z,24.87
2022-08-26T06:53:13.192Z,24.95
2022-08-26T06:58:16.655Z,25.19
2022-08-26T07:03:21.707Z,25.42
2022-08-26T07:08:25.119Z,25.68
2022-08-26T07:13:30.524Z,25.93
2022-08-26T07:18:37.342Z,26.15
2022-08-26T07:23:42.840Z,26.33
2022-08-26T07:28:49.140Z,26.59
2022-08-26T07:33:53.858Z,26.76
2022-08-26T07:38:57.787Z,26.84
2022-08-26T07:44:01.404Z,27.07
2022-08-26T07:49:04.869Z,27.16
2022-08-26T07:54:08.231Z,27.15
2022-08-26T07:59:13.762Z,27.12
2022-08-26T08:04:26.236Z,27.09
2022-08-26T08:09:30.040Z,27.07
2022-08-26T08:14:34.990Z,27.03
2022-08-26T08:19:39.242Z,27.06
2022-08-26T08:24:43.150Z,27.07
2022-08-26T08:29:47.790Z,27.09
2022-08-26T08:34:52.395Z,27.11
2022-08-26T08:39:55.767Z,27.19
2022-08-26T08:45:37.380Z,27.28
2022-08-26T08:50:46.603Z,27.38
2022-08-26T08:56:28.419Z,27.52
2022-08-26T09:01:54.077Z,27.76
2022-08-26T09:07:00.287Z,27.97
2022-08-26T09:12:07.777Z,28.16
2022-08-26T09:17:37.776Z,28.43
2022-08-26T09:22:41.710Z,28.87
2022-08-26T09:27:53.718Z,29.40
2022-08-26T09:33:10.823Z,29.87
2022-08-26T09:38:35.310Z,30.34
2022-08-26T09:43:38.772Z,30.89
2022-08-26T09:48:43.525Z,31.11
2022-08-26T09:53:53.450Z,31.18
2022-08-26T09:58:58.024Z,31.27
2022-08-26T10:04:26.794Z,31.45
2022-08-26T10:09:35.745Z,31.66
2022-08-26T10:14:48.411Z,31.87
2022-08-26T10:20:22.835Z,32.03
2022-08-26T10:25:38.035Z,32.21
2022-08-26T10:30:47.366Z,32.40
2022-08-26T10:35:53.962Z,32.55
2022-08-26T10:41:15.891Z,32.91
2022-08-26T10:46:27.297Z,33.22
2022-08-26T10:51:38.825Z,33.40
2022-08-26T10:57:03.744Z,33.32
2022-08-26T11:02:24.167Z,32.98
2022-08-26T11:07:34.328Z,32.75
2022-08-26T11:12:37.607Z,32.72
2022-08-26T11:17:47.196Z,32.71
2022-08-26T11:22:51.781Z,32.64
2022-08-26T11:27:58.403Z,32.59
2022-08-26T11:33:01.838Z,32.55
2022-08-26T11:38:50.274Z,32.55
2022-08-26T11:43:53.620Z,32.41
2022-08-26T11:49:06.123Z,32.24
2022-08-26T11:54:13.044Z,32.31
2022-08-26T12:04:46.692Z,32.37
2022-08-26T12:09:57.120Z,32.59
2022-08-26T12:15:15.441Z,32.95
2022-08-26T12:20:49.169Z,33.31
2022-08-26T12:26:03.234Z,33.43
2022-08-26T12:31:19.548Z,33.17
2022-08-26T12:36:32.383Z,32.86
2022-08-26T12:41:47.369Z,32.90
2022-08-26T12:46:51.102Z,33.17
2022-08-26T12:51:54.382Z,33.36
2022-08-26T12:56:57.697Z,33.62
2022-08-26T13:02:01.106Z,34.00
2022-08-26T13:07:20.821Z,34.27
2022-08-26T13:12:37.416Z,34.66
2022-08-26T13:17:42.289Z,35.06
2022-08-26T13:22:45.805Z,35.40
2022-08-26T13:27:57.511Z,35.74
2022-08-26T13:33:02.222Z,36.19
2022-08-26T13:38:32.865Z,36.81
2022-08-26T13:43:37.389Z,37.32
2022-08-26T13:48:41.131Z,37.77
2022-08-26T13:53:48.886Z,38.33
2022-08-26T13:58:52.298Z,38.64
2022-08-26T14:03:57.408Z,38.75
2022-08-26T14:09:00.989Z,38.35
2022-08-26T14:14:04.744Z,37.57
2022-08-26T14:19:10.967Z,37.04
2022-08-26T14:24:14.595Z,36.43
2022-08-26T14:29:18.102Z,36.00
2022-08-26T14:34:25.201Z,35.89
2022-08-26T14:39:28.512Z,37.64
2022-08-26T14:44:33.872Z,42.45
2022-08-26T14:49:37.386Z,46.58
2022-08-26T14:54:40.901Z,50.24
2022-08-26T14:59:49.749Z,53.29
2022-08-26T15:04:53.674Z,55.60
2022-08-26T15:09:57.287Z,56.73
2022-08-26T15:15:00.704Z,57.45
2022-08-26T15:20:07.824Z,57.86
2022-08-26T15:25:11.316Z,58.54
2022-08-26T15:30:16.549Z,59.79
2022-08-26T15:35:19.888Z,60.00
2022-08-26T15:40:26.845Z,59.19
2022-08-26T15:45:33.018Z,58.48
2022-08-26T15:50:36.363Z,57.41
2022-08-26T15:55:39.709Z,56.60
2022-08-26T16:00:43.042Z,55.64
2022-08-26T16:05:47.710Z,55.06
2022-08-26T16:10:51.682Z,55.00
2022-08-26T16:15:55.019Z,54.84
2022-08-26T16:21:12.520Z,54.29
2022-08-26T16:26:20.885Z,53.63
2022-08-26T16:31:24.519Z,52.91
2022-08-26T16:36:28.000Z,52.25
2022-08-26T16:41:31.995Z,51.57
2022-08-26T16:46:36.288Z,50.75
2022-08-26T16:51:39.694Z,49.64
2022-08-26T16:56:42.927Z,48.93
2022-08-26T17:01:46.317Z,47.95
2022-08-26T17:06:49.948Z,47.08
2022-08-26T17:11:54.683Z,45.94
2022-08-26T17:16:57.997Z,44.39
2022-08-26T17:22:01.225Z,42.78
2022-08-26T17:27:09.203Z,40.88
2022-08-26T17:32:12.663Z,38.85
2022-08-26T17:37:17.055Z,37.04
2022-08-26T17:42:20.404Z,35.20
2022-08-26T17:47:24.035Z,33.67
2022-08-26T17:52:28.282Z,32.39
2022-08-26T17:57:31.648Z,31.29
2022-08-26T18:02:43.901Z,30.25
2022-08-26T18:07:48.667Z,29.39
2022-08-26T18:12:52.355Z,28.72
2022-08-26T18:17:55.645Z,28.15
2022-08-26T18:22:59.030Z,27.61
2022-08-26T18:28:02.407Z,27.12
2022-08-26T18:33:05.782Z,26.71
2022-08-26T18:38:10.848Z,26.33
2022-08-26T18:43:15.061Z,25.99
2022-08-26T18:48:18.271Z,25.64
2022-08-26T18:53:21.667Z,25.36
2022-08-26T18:58:25.754Z,25.09
2022-08-26T19:03:29.050Z,24.86
2022-08-26T19:08:32.255Z,24.65
2022-08-26T19:13:36.623Z,24.47
2022-08-26T19:18:40.034Z,24.28
2022-08-26T19:23:43.309Z,24.13
2022-08-26T19:28:47.390Z,23.98
2022-08-26T19:33:53.383Z,23.81
2022-08-26T19:38:57.275Z,23.68
2022-08-26T19:44:02.843Z,23.54
2022-08-26T19:49:07.584Z,23.39
2022-08-26T19:54:11.097Z,23.22
2022-08-26T19:59:14.875Z,23.09
2022-08-26T20:04:18.129Z,22.95
2022-08-26T20:09:21.440Z,22.83
2022-08-26T20:14:25.978Z,22.70
2022-08-26T20:19:48.237Z,22.54
2022-08-26T20:24:52.455Z,22.41
2022-08-26T20:29:57.746Z,22.31
2022-08-26T20:35:01.940Z,22.19
2022-08-26T20:40:08.592Z,22.06
2022-08-26T20:45:12.926Z,21.91
2022-08-26T20:50:16.709Z,21.79
2022-08-26T20:55:20.838Z,21.67
2022-08-26T21:00:26.489Z,21.51
2022-08-26T21:05:30.633Z,21.36
2022-08-26T21:10:34.048Z,21.30
2022-08-26T21:15:37.460Z,21.20
2022-08-26T21:20:40.770Z,21.14
2022-08-26T21:25:45.239Z,21.12
2022-08-26T21:30:48.856Z,21.05
2022-08-26T21:35:55.613Z,20.96
2022-08-26T21:41:09.862Z,20.87
2022-08-26T21:46:17.081Z,20.82
2022-08-26T21:51:23.502Z,20.80
2022-08-26T21:56:29.836Z,20.78
2022-08-26T22:01:35.122Z,20.81
2022-08-26T22:06:47.940Z,20.80
2022-08-26T22:11:52.062Z,20.79
2022-08-26T22:16:57.272Z,20.76
2022-08-26T22:22:01.320Z,20.75
2022-08-26T22:27:05.150Z,20.76
2022-08-26T22:32:08.789Z,20.75
2022-08-26T22:37:12.398Z,20.70
2022-08-26T22:42:15.835Z,20.70
2022-08-26T22:47:20.014Z,20.66
2022-08-26T22:52:23.318Z,20.63
2022-08-26T22:57:26.767Z,20.59
2022-08-26T23:02:30.109Z,20.55
2022-08-26T23:07:34.295Z,20.49
2022-08-26T23:12:38.224Z,20.42
2022-08-26T23:17:41.955Z,20.34
2022-08-26T23:22:45.418Z,20.27
2022-08-26T23:27:49.271Z,20.18
2022-08-26T23:32:52.594Z,20.13
2022-08-26T23:37:56.100Z,20.08
2022-08-26T23:43:05.213Z,20.03
2022-08-26T23:48:08.722Z,19.97
2022-08-26T23:53:19.645Z,19.92
2022-08-26T23:58:23.081Z,19.83
